sensor_id;sensor_type;location;lat;lon;timestamp;noise_LAeq;noise_LA_min;noise_LA_max;noise_LA01;noise_LA95
60031;Laerm;45901;47.600;9.890;2023-03-11T00:00:25;40.15;38.05;43.90;;
60031;Laerm;45901;47.600;9.890;2023-03-11T00:02:55;40.15;37.88;42.41;;
60031;Laerm;45901;47.600;9.890;2023-03-11T00:05:25;40.10;37.88;41.82;;
60031;Laerm;45901;47.600;9.890;2023-03-11T00:07:54;40.12;38.05;41.82;;
60031;Laerm;45901;47.600;9.890;2023-03-11T00:10:24;40.23;38.21;41.96;;
60031;Laerm;45901;47.600;9.890;2023-03-11T00:12:51;40.33;37.87;46.76;;
60031;Laerm;45901;47.600;9.890;2023-03-11T00:15:19;40.49;38.05;44.27;;
60031;Laerm;45901;47.600;9.890;2023-03-11T00:17:47;40.42;38.37;42.41;;
60031;Laerm;45901;47.600;9.890;2023-03-11T00:20:18;40.58;38.67;42.41;;
60031;Laerm;45901;47.600;9.890;2023-03-11T00:22:46;40.65;37.70;42.29;;
60031;Laerm;45901;47.600;9.890;2023-03-11T00:25:19;40.72;38.21;42.53;;
60031;Laerm;45901;47.600;9.890;2023-03-11T00:27:46;40.86;38.81;42.47;;
60031;Laerm;45901;47.600;9.890;2023-03-11T00:30:15;41.01;39.08;43.29;;
60031;Laerm;45901;47.600;9.890;2023-03-11T00:32:43;40.86;38.67;43.14;;
60031;Laerm;45901;47.600;9.890;2023-03-11T00:35:13;40.89;38.81;42.47;;
60031;Laerm;45901;47.600;9.890;2023-03-11T00:37:42;40.96;38.81;42.53;;
60031;Laerm;45901;47.600;9.890;2023-03-11T00:40:12;41.01;38.81;42.64;;
60031;Laerm;45901;47.600;9.890;2023-03-11T00:42:42;41.15;39.46;42.82;;
60031;Laerm;45901;47.600;9.890;2023-03-11T00:45:14;41.32;39.34;43.34;;
60031;Laerm;45901;47.600;9.890;2023-03-11T00:47:41;41.47;39.46;42.93;;
60031;Laerm;45901;47.600;9.890;2023-03-11T00:50:12;41.44;39.21;42.93;;
60031;Laerm;45901;47.600;9.890;2023-03-11T00:52:40;41.31;39.34;42.98;;
60031;Laerm;45901;47.600;9.890;2023-03-11T00:55:09;41.20;38.81;42.65;;
60031;Laerm;45901;47.600;9.890;2023-03-11T00:57:36;41.23;39.21;42.71;;
60031;Laerm;45901;47.600;9.890;2023-03-11T01:00:08;41.26;39.21;42.95;;
60031;Laerm;45901;47.600;9.890;2023-03-11T01:02:38;41.13;38.95;42.88;;
60031;Laerm;45901;47.600;9.890;2023-03-11T01:05:06;41.15;38.95;42.82;;
60031;Laerm;45901;47.600;9.890;2023-03-11T01:07:34;41.05;39.08;42.76;;
60031;Laerm;45901;47.600;9.890;2023-03-11T01:10:02;41.08;38.52;42.71;;
60031;Laerm;45901;47.600;9.890;2023-03-11T01:12:29;41.06;38.67;42.47;;
60031;Laerm;45901;47.600;9.890;2023-03-11T01:14:57;40.97;38.67;42.59;;
60031;Laerm;45901;47.600;9.890;2023-03-11T01:17:25;40.86;38.52;44.23;;
60031;Laerm;45901;47.600;9.890;2023-03-11T01:19:53;40.72;38.21;42.74;;
60031;Laerm;45901;47.600;9.890;2023-03-11T01:22:20;40.69;38.67;42.65;;
60031;Laerm;45901;47.600;9.890;2023-03-11T01:24:47;40.54;38.52;42.16;;
60031;Laerm;45901;47.600;9.890;2023-03-11T01:27:14;40.47;38.37;42.22;;
60031;Laerm;45901;47.600;9.890;2023-03-11T01:29:41;40.54;37.88;42.53;;
60031;Laerm;45901;47.600;9.890;2023-03-11T01:32:09;40.51;38.05;43.81;;
60031;Laerm;45901;47.600;9.890;2023-03-11T01:34:38;40.60;38.05;42.35;;
60031;Laerm;45901;47.600;9.890;2023-03-11T01:37:05;40.60;38.21;42.29;;
60031;Laerm;45901;47.600;9.890;2023-03-11T01:39:32;40.62;38.52;42.29;;
60031;Laerm;45901;47.600;9.890;2023-03-11T01:42:00;40.77;38.52;43.09;;
60031;Laerm;45901;47.600;9.890;2023-03-11T01:44:27;40.72;38.37;42.53;;
60031;Laerm;45901;47.600;9.890;2023-03-11T01:47:36;40.77;38.21;43.09;;
60031;Laerm;45901;47.600;9.890;2023-03-11T01:50:10;40.81;38.67;42.53;;
60031;Laerm;45901;47.600;9.890;2023-03-11T01:52:40;40.84;38.95;43.63;;
60031;Laerm;45901;47.600;9.890;2023-03-11T01:55:10;40.88;38.81;42.71;;
60031;Laerm;45901;47.600;9.890;2023-03-11T01:57:40;40.87;38.37;42.76;;
60031;Laerm;45901;47.600;9.890;2023-03-11T02:00:13;40.88;38.67;42.88;;
60031;Laerm;45901;47.600;9.890;2023-03-11T02:02:45;40.93;38.52;42.90;;
60031;Laerm;45901;47.600;9.890;2023-03-11T02:05:17;40.90;38.21;43.34;;
60031;Laerm;45901;47.600;9.890;2023-03-11T02:07:45;40.83;38.52;42.47;;
60031;Laerm;45901;47.600;9.890;2023-03-11T02:10:13;40.91;38.37;42.76;;
60031;Laerm;45901;47.600;9.890;2023-03-11T02:12:41;40.92;38.81;42.53;;
60031;Laerm;45901;47.600;9.890;2023-03-11T02:15:11;40.93;38.67;44.03;;
60031;Laerm;45901;47.600;9.890;2023-03-11T02:17:40;40.96;38.81;42.76;;
60031;Laerm;45901;47.600;9.890;2023-03-11T02:20:20;41.02;38.67;42.82;;
60031;Laerm;45901;47.600;9.890;2023-03-11T02:22:50;40.94;38.52;42.82;;
60031;Laerm;45901;47.600;9.890;2023-03-11T02:25:30;40.93;38.81;42.82;;
60031;Laerm;45901;47.600;9.890;2023-03-11T02:28:04;40.89;38.67;42.59;;
60031;Laerm;45901;47.600;9.890;2023-03-11T02:30:34;40.95;38.52;43.44;;
60031;Laerm;45901;47.600;9.890;2023-03-11T02:33:02;40.88;38.95;42.59;;
60031;Laerm;45901;47.600;9.890;2023-03-11T02:35:29;40.97;38.67;44.27;;
60031;Laerm;45901;47.600;9.890;2023-03-11T02:37:57;41.49;38.95;43.29;;
60031;Laerm;45901;47.600;9.890;2023-03-11T02:40:50;41.32;39.21;43.04;;
60031;Laerm;45901;47.600;9.890;2023-03-11T02:43:24;41.29;39.08;43.09;;
60031;Laerm;45901;47.600;9.890;2023-03-11T02:45:54;41.23;39.21;43.04;;
60031;Laerm;45901;47.600;9.890;2023-03-11T02:48:22;41.13;38.81;42.65;;
60031;Laerm;45901;47.600;9.890;2023-03-11T02:50:50;41.30;39.34;42.82;;
60031;Laerm;45901;47.600;9.890;2023-03-11T02:53:18;41.27;39.08;43.00;;
60031;Laerm;45901;47.600;9.890;2023-03-11T02:55:45;41.13;38.95;42.65;;
60031;Laerm;45901;47.600;9.890;2023-03-11T02:58:12;41.18;39.08;42.88;;
60031;Laerm;45901;47.600;9.890;2023-03-11T03:00:41;41.34;39.46;43.54;;
60031;Laerm;45901;47.600;9.890;2023-03-11T03:03:08;41.05;38.37;42.59;;
60031;Laerm;45901;47.600;9.890;2023-03-11T03:05:35;41.05;38.95;42.88;;
60031;Laerm;45901;47.600;9.890;2023-03-11T03:08:03;41.10;39.08;42.88;;
60031;Laerm;45901;47.600;9.890;2023-03-11T03:10:30;41.18;38.67;42.93;;
60031;Laerm;45901;47.600;9.890;2023-03-11T03:12:57;41.09;39.08;43.04;;
60031;Laerm;45901;47.600;9.890;2023-03-11T03:15:25;41.11;38.67;42.82;;
60031;Laerm;45901;47.600;9.890;2023-03-11T03:17:53;41.12;38.52;42.76;;
60031;Laerm;45901;47.600;9.890;2023-03-11T03:20:21;41.06;38.67;42.76;;
60031;Laerm;45901;47.600;9.890;2023-03-11T03:22:49;41.08;38.52;42.59;;
60031;Laerm;45901;47.600;9.890;2023-03-11T03:25:17;41.14;38.67;42.71;;
60031;Laerm;45901;47.600;9.890;2023-03-11T03:27:44;41.05;38.52;42.59;;
60031;Laerm;45901;47.600;9.890;2023-03-11T03:30:12;41.07;39.21;43.09;;
60031;Laerm;45901;47.600;9.890;2023-03-11T03:32:39;41.09;38.67;42.71;;
60031;Laerm;45901;47.600;9.890;2023-03-11T03:35:09;41.12;38.52;42.71;;
60031;Laerm;45901;47.600;9.890;2023-03-11T03:37:37;40.85;38.52;42.59;;
60031;Laerm;45901;47.600;9.890;2023-03-11T03:40:07;40.85;38.81;42.59;;
60031;Laerm;45901;47.600;9.890;2023-03-11T03:42:35;40.92;38.52;42.59;;
60031;Laerm;45901;47.600;9.890;2023-03-11T03:45:04;40.99;38.37;42.65;;
60031;Laerm;45901;47.600;9.890;2023-03-11T03:47:33;40.96;38.81;43.44;;
60031;Laerm;45901;47.600;9.890;2023-03-11T03:50:02;40.91;38.52;42.59;;
60031;Laerm;45901;47.600;9.890;2023-03-11T03:52:30;40.88;38.05;42.65;;
60031;Laerm;45901;47.600;9.890;2023-03-11T03:54:58;40.97;38.67;42.88;;
60031;Laerm;45901;47.600;9.890;2023-03-11T03:57:25;41.01;39.08;42.71;;
60031;Laerm;45901;47.600;9.890;2023-03-11T03:59:54;41.04;38.81;42.59;;
60031;Laerm;45901;47.600;9.890;2023-03-11T04:02:21;41.01;38.52;43.09;;
60031;Laerm;45901;47.600;9.890;2023-03-11T04:04:49;40.92;38.52;42.47;;
60031;Laerm;45901;47.600;9.890;2023-03-11T04:07:16;40.96;38.67;42.59;;
60031;Laerm;45901;47.600;9.890;2023-03-11T04:09:45;40.90;38.37;42.65;;
60031;Laerm;45901;47.600;9.890;2023-03-11T04:12:13;40.93;38.37;42.41;;
60031;Laerm;45901;47.600;9.890;2023-03-11T04:14:42;40.84;38.21;42.53;;
60031;Laerm;45901;47.600;9.890;2023-03-11T04:17:10;40.74;38.52;42.71;;
60031;Laerm;45901;47.600;9.890;2023-03-11T04:19:37;40.89;38.52;42.76;;
60031;Laerm;45901;47.600;9.890;2023-03-11T04:22:05;40.85;38.95;42.65;;
60031;Laerm;45901;47.600;9.890;2023-03-11T04:24:32;40.94;37.88;42.53;;
60031;Laerm;45901;47.600;9.890;2023-03-11T04:27:01;40.90;38.37;42.53;;
60031;Laerm;45901;47.600;9.890;2023-03-11T04:29:28;40.89;38.81;42.59;;
60031;Laerm;45901;47.600;9.890;2023-03-11T04:31:56;40.89;38.52;43.49;;
60031;Laerm;45901;47.600;9.890;2023-03-11T04:34:23;40.98;38.21;42.59;;
60031;Laerm;45901;47.600;9.890;2023-03-11T04:36:51;41.13;38.52;42.82;;
60031;Laerm;45901;47.600;9.890;2023-03-11T04:39:20;41.03;38.81;42.65;;
60031;Laerm;45901;47.600;9.890;2023-03-11T04:41:47;40.99;38.95;42.59;;
60031;Laerm;45901;47.600;9.890;2023-03-11T04:44:16;40.96;38.52;42.47;;
60031;Laerm;45901;47.600;9.890;2023-03-11T04:46:43;40.96;38.74;43.14;;
60031;Laerm;45901;47.600;9.890;2023-03-11T04:49:11;40.93;38.37;42.71;;
60031;Laerm;45901;47.600;9.890;2023-03-11T04:51:38;40.96;39.08;42.76;;
60031;Laerm;45901;47.600;9.890;2023-03-11T04:54:05;40.90;38.37;42.53;;
60031;Laerm;45901;47.600;9.890;2023-03-11T04:56:33;40.93;38.95;42.53;;
60031;Laerm;45901;47.600;9.890;2023-03-11T04:59:00;40.96;38.81;42.47;;
60031;Laerm;45901;47.600;9.890;2023-03-11T05:01:29;41.01;38.52;43.04;;
60031;Laerm;45901;47.600;9.890;2023-03-11T05:03:56;40.99;38.67;42.71;;
60031;Laerm;45901;47.600;9.890;2023-03-11T05:06:23;41.21;38.81;43.09;;
60031;Laerm;45901;47.600;9.890;2023-03-11T05:08:51;40.93;38.81;42.65;;
60031;Laerm;45901;47.600;9.890;2023-03-11T05:11:18;41.06;38.81;42.82;;
60031;Laerm;45901;47.600;9.890;2023-03-11T05:13:46;40.85;38.21;42.47;;
60031;Laerm;45901;47.600;9.890;2023-03-11T05:16:13;40.95;38.81;42.82;;
60031;Laerm;45901;47.600;9.890;2023-03-11T05:18:42;40.89;38.21;42.71;;
60031;Laerm;45901;47.600;9.890;2023-03-11T05:21:09;40.94;38.81;44.90;;
60031;Laerm;45901;47.600;9.890;2023-03-11T05:23:36;40.93;38.81;42.71;;
60031;Laerm;45901;47.600;9.890;2023-03-11T05:26:04;40.97;38.67;42.71;;
60031;Laerm;45901;47.600;9.890;2023-03-11T05:28:32;40.95;38.52;42.71;;
60031;Laerm;45901;47.600;9.890;2023-03-11T05:30:59;41.20;38.67;42.76;;
60031;Laerm;45901;47.600;9.890;2023-03-11T05:33:26;40.91;38.32;42.53;;
60031;Laerm;45901;47.600;9.890;2023-03-11T05:36:05;40.81;38.05;42.98;;
60031;Laerm;45901;47.600;9.890;2023-03-11T05:38:34;40.79;38.52;42.59;;
60031;Laerm;45901;47.600;9.890;2023-03-11T05:41:01;40.67;38.37;42.35;;
60031;Laerm;45901;47.600;9.890;2023-03-11T05:43:28;40.61;37.52;42.29;;
60031;Laerm;45901;47.600;9.890;2023-03-11T05:45:55;40.64;38.05;43.24;;
60031;Laerm;45901;47.600;9.890;2023-03-11T05:48:23;40.38;38.21;42.03;;
60031;Laerm;45901;47.600;9.890;2023-03-11T05:50:50;40.35;37.32;41.96;;
60031;Laerm;45901;47.600;9.890;2023-03-11T05:53:19;40.28;37.88;41.96;;
60031;Laerm;45901;47.600;9.890;2023-03-11T05:55:55;40.24;37.52;44.87;;
60031;Laerm;45901;47.600;9.890;2023-03-11T05:58:22;40.09;37.70;42.13;;
60031;Laerm;45901;47.600;9.890;2023-03-11T06:00:50;40.15;37.70;43.14;;
60031;Laerm;45901;47.600;9.890;2023-03-11T06:03:17;40.05;37.35;41.89;;
60031;Laerm;45901;47.600;9.890;2023-03-11T06:05:45;39.92;37.12;42.16;;
60031;Laerm;45901;47.600;9.890;2023-03-11T06:08:12;39.84;37.52;41.68;;
60031;Laerm;45901;47.600;9.890;2023-03-11T06:10:41;40.00;37.70;42.03;;
60031;Laerm;45901;47.600;9.890;2023-03-11T06:13:09;39.99;37.52;42.16;;
60031;Laerm;45901;47.600;9.890;2023-03-11T06:15:37;39.94;36.69;42.03;;
60031;Laerm;45901;47.600;9.890;2023-03-11T06:18:04;39.95;37.12;49.04;;
60031;Laerm;45901;47.600;9.890;2023-03-11T06:20:32;39.86;37.32;41.61;;
60031;Laerm;45901;47.600;9.890;2023-03-11T06:22:59;39.91;37.32;42.29;;
60031;Laerm;45901;47.600;9.890;2023-03-11T06:25:27;39.92;37.70;41.75;;
60031;Laerm;45901;47.600;9.890;2023-03-11T06:27:55;40.05;37.52;42.93;;
60031;Laerm;45901;47.600;9.890;2023-03-11T06:30:23;39.98;37.52;42.71;;
60031;Laerm;45901;47.600;9.890;2023-03-11T06:32:51;39.87;37.52;41.68;;
60031;Laerm;45901;47.600;9.890;2023-03-11T06:35:20;39.94;36.91;41.82;;
60031;Laerm;45901;47.600;9.890;2023-03-11T06:37:47;40.05;37.52;41.96;;
60031;Laerm;45901;47.600;9.890;2023-03-11T06:40:14;40.17;37.70;45.42;;
60031;Laerm;45901;47.600;9.890;2023-03-11T06:42:41;40.24;38.05;43.24;;
60031;Laerm;45901;47.600;9.890;2023-03-11T06:45:12;40.20;37.70;44.11;;
60031;Laerm;45901;47.600;9.890;2023-03-11T06:47:40;40.11;37.70;44.19;;
60031;Laerm;45901;47.600;9.890;2023-03-11T06:50:09;40.09;37.32;42.35;;
60031;Laerm;45901;47.600;9.890;2023-03-11T06:52:36;40.15;37.88;42.09;;
60031;Laerm;45901;47.600;9.890;2023-03-11T06:55:05;40.04;37.87;41.82;;
60031;Laerm;45901;47.600;9.890;2023-03-11T06:57:32;39.98;37.12;42.82;;
60031;Laerm;45901;47.600;9.890;2023-03-11T07:00:00;39.96;37.52;44.03;;
60031;Laerm;45901;47.600;9.890;2023-03-11T07:02:32;40.10;37.12;43.39;;
60031;Laerm;45901;47.600;9.890;2023-03-11T07:04:59;39.83;37.52;41.68;;
60031;Laerm;45901;47.600;9.890;2023-03-11T07:07:26;39.81;37.32;41.75;;
60031;Laerm;45901;47.600;9.890;2023-03-11T07:09:54;39.78;37.52;42.71;;
60031;Laerm;45901;47.600;9.890;2023-03-11T07:12:22;39.67;37.52;41.46;;
60031;Laerm;45901;47.600;9.890;2023-03-11T07:14:54;39.73;37.52;42.47;;
60031;Laerm;45901;47.600;9.890;2023-03-11T07:17:22;39.79;37.32;42.35;;
60031;Laerm;45901;47.600;9.890;2023-03-11T07:19:51;39.70;36.69;41.96;;
60031;Laerm;45901;47.600;9.890;2023-03-11T07:22:18;39.73;37.32;49.18;;
60031;Laerm;45901;47.600;9.890;2023-03-11T07:24:46;39.60;36.91;41.53;;
60031;Laerm;45901;47.600;9.890;2023-03-11T07:27:14;39.60;36.77;41.82;;
60031;Laerm;45901;47.600;9.890;2023-03-11T07:29:41;39.67;37.12;41.75;;
60031;Laerm;45901;47.600;9.890;2023-03-11T07:32:09;39.69;37.32;43.19;;
60031;Laerm;45901;47.600;9.890;2023-03-11T07:34:36;39.70;37.32;41.53;;
60031;Laerm;45901;47.600;9.890;2023-03-11T07:37:05;39.79;37.12;43.44;;
60031;Laerm;45901;47.600;9.890;2023-03-11T07:39:32;39.68;36.20;41.61;;
60031;Laerm;45901;47.600;9.890;2023-03-11T07:41:59;39.62;37.12;41.38;;
60031;Laerm;45901;47.600;9.890;2023-03-11T07:44:26;39.63;37.12;41.46;;
60031;Laerm;45901;47.600;9.890;2023-03-11T07:46:54;39.72;37.12;43.44;;
60031;Laerm;45901;47.600;9.890;2023-03-11T07:49:21;39.67;37.32;42.22;;
60031;Laerm;45901;47.600;9.890;2023-03-11T07:51:48;39.75;37.12;42.22;;
60031;Laerm;45901;47.600;9.890;2023-03-11T07:54:17;39.65;37.32;41.53;;
60031;Laerm;45901;47.600;9.890;2023-03-11T07:56:44;39.85;37.12;45.01;;
60031;Laerm;45901;47.600;9.890;2023-03-11T07:59:11;39.80;37.70;42.29;;
60031;Laerm;45901;47.600;9.890;2023-03-11T08:01:39;40.06;37.52;44.31;;
60031;Laerm;45901;47.600;9.890;2023-03-11T08:04:13;39.72;37.32;47.84;;
60031;Laerm;45901;47.600;9.890;2023-03-11T08:06:44;39.94;37.52;43.77;;
60031;Laerm;45901;47.600;9.890;2023-03-11T08:09:12;39.81;37.12;42.47;;
60031;Laerm;45901;47.600;9.890;2023-03-11T08:11:41;39.86;37.32;43.49;;
60031;Laerm;45901;47.600;9.890;2023-03-11T08:14:08;39.81;37.32;43.24;;
60031;Laerm;45901;47.600;9.890;2023-03-11T08:16:39;39.87;37.52;42.35;;
60031;Laerm;45901;47.600;9.890;2023-03-11T08:19:06;39.73;37.32;41.61;;
60031;Laerm;45901;47.600;9.890;2023-03-11T08:21:33;39.72;37.32;41.89;;
60031;Laerm;45901;47.600;9.890;2023-03-11T08:24:01;39.84;37.12;43.39;;
60031;Laerm;45901;47.600;9.890;2023-03-11T08:26:30;39.80;37.32;41.96;;
60031;Laerm;45901;47.600;9.890;2023-03-11T08:28:58;39.72;37.12;41.38;;
60031;Laerm;45901;47.600;9.890;2023-03-11T08:31:28;39.79;37.32;43.14;;
60031;Laerm;45901;47.600;9.890;2023-03-11T08:33:58;39.94;37.32;43.00;;
60031;Laerm;45901;47.600;9.890;2023-03-11T08:36:26;39.91;36.91;42.29;;
60031;Laerm;45901;47.600;9.890;2023-03-11T08:38:53;39.82;37.17;44.07;;
60031;Laerm;45901;47.600;9.890;2023-03-11T08:41:20;39.78;37.32;42.53;;
60031;Laerm;45901;47.600;9.890;2023-03-11T08:43:48;39.74;37.32;42.09;;
60031;Laerm;45901;47.600;9.890;2023-03-11T08:46:23;40.08;37.12;44.15;;
60031;Laerm;45901;47.600;9.890;2023-03-11T08:48:51;40.00;37.52;43.34;;
60031;Laerm;45901;47.600;9.890;2023-03-11T08:51:19;39.81;36.91;43.24;;
60031;Laerm;45901;47.600;9.890;2023-03-11T08:53:47;39.85;37.35;42.59;;
60031;Laerm;45901;47.600;9.890;2023-03-11T08:56:15;39.78;37.12;43.49;;
60031;Laerm;45901;47.600;9.890;2023-03-11T08:58:42;39.69;36.91;42.59;;
60031;Laerm;45901;47.600;9.890;2023-03-11T09:01:10;40.26;36.69;44.47;;
60031;Laerm;45901;47.600;9.890;2023-03-11T09:03:39;39.88;37.12;43.24;;
60031;Laerm;45901;47.600;9.890;2023-03-11T09:06:10;39.73;37.12;44.19;;
60031;Laerm;45901;47.600;9.890;2023-03-11T09:08:38;40.05;37.52;47.76;;
60031;Laerm;45901;47.600;9.890;2023-03-11T09:11:06;39.88;37.32;43.99;;
60031;Laerm;45901;47.600;9.890;2023-03-11T09:13:33;40.02;37.52;43.68;;
60031;Laerm;45901;47.600;9.890;2023-03-11T09:16:01;39.91;37.32;45.17;;
60031;Laerm;45901;47.600;9.890;2023-03-11T09:18:30;39.98;37.52;44.03;;
60031;Laerm;45901;47.600;9.890;2023-03-11T09:20:59;40.12;36.45;45.66;;
60031;Laerm;45901;47.600;9.890;2023-03-11T09:23:26;39.88;37.32;43.54;;
60031;Laerm;45901;47.600;9.890;2023-03-11T09:25:53;39.84;37.32;41.96;;
60031;Laerm;45901;47.600;9.890;2023-03-11T09:28:21;39.99;37.12;43.63;;
60031;Laerm;45901;47.600;9.890;2023-03-11T09:30:49;40.25;37.32;44.07;;
60031;Laerm;45901;47.600;9.890;2023-03-11T09:33:16;39.84;36.91;43.19;;
60031;Laerm;45901;47.600;9.890;2023-03-11T09:35:44;40.11;36.69;60.02;;
60031;Laerm;45901;47.600;9.890;2023-03-11T09:38:13;40.13;37.12;61.74;;
60031;Laerm;45901;47.600;9.890;2023-03-11T09:40:51;39.80;36.45;44.76;;
60031;Laerm;45901;47.600;9.890;2023-03-11T09:43:31;39.77;36.77;42.53;;
60031;Laerm;45901;47.600;9.890;2023-03-11T09:46:21;39.78;36.69;43.58;;
60031;Laerm;45901;47.600;9.890;2023-03-11T09:48:58;39.64;36.69;42.98;;
60031;Laerm;45901;47.600;9.890;2023-03-11T09:51:34;39.81;36.91;43.29;;
60031;Laerm;45901;47.600;9.890;2023-03-11T09:54:08;39.64;36.45;43.04;;
60031;Laerm;45901;47.600;9.890;2023-03-11T09:56:37;39.82;36.91;43.19;;
60031;Laerm;45901;47.600;9.890;2023-03-11T09:59:12;40.20;37.17;57.59;;
60031;Laerm;45901;47.600;9.890;2023-03-11T10:01:43;40.35;37.12;44.90;;
60031;Laerm;45901;47.600;9.890;2023-03-11T10:04:15;39.70;37.32;43.63;;
60031;Laerm;45901;47.600;9.890;2023-03-11T10:06:45;39.59;37.12;42.88;;
60031;Laerm;45901;47.600;9.890;2023-03-11T10:09:30;39.94;37.12;42.65;;
60031;Laerm;45901;47.600;9.890;2023-03-11T10:12:19;39.88;37.32;43.72;;
60031;Laerm;45901;47.600;9.890;2023-03-11T10:15:07;39.88;36.91;44.90;;
60031;Laerm;45901;47.600;9.890;2023-03-11T10:18:04;39.74;37.12;42.76;;
60031;Laerm;45901;47.600;9.890;2023-03-11T10:20:41;39.89;36.69;43.29;;
60031;Laerm;45901;47.600;9.890;2023-03-11T10:23:22;39.71;36.69;42.09;;
60031;Laerm;45901;47.600;9.890;2023-03-11T10:26:00;39.82;36.91;42.98;;
60031;Laerm;45901;47.600;9.890;2023-03-11T10:28:34;39.84;37.12;43.51;;
60031;Laerm;45901;47.600;9.890;2023-03-11T10:31:09;39.70;36.45;43.72;;
60031;Laerm;45901;47.600;9.890;2023-03-11T10:33:50;39.87;37.52;42.71;;
60031;Laerm;45901;47.600;9.890;2023-03-11T10:36:23;39.83;36.91;43.58;;
60031;Laerm;45901;47.600;9.890;2023-03-11T10:38:54;39.92;36.91;47.72;;
60031;Laerm;45901;47.600;9.890;2023-03-11T10:41:29;39.63;36.91;42.88;;
60031;Laerm;45901;47.600;9.890;2023-03-11T10:44:04;39.82;37.12;44.07;;
60031;Laerm;45901;47.600;9.890;2023-03-11T10:46:33;40.02;36.69;44.62;;
60031;Laerm;45901;47.600;9.890;2023-03-11T10:49:00;39.97;36.69;46.66;;
60031;Laerm;45901;47.600;9.890;2023-03-11T10:51:33;39.92;36.69;46.35;;
60031;Laerm;45901;47.600;9.890;2023-03-11T10:54:02;39.93;37.52;47.36;;
60031;Laerm;45901;47.600;9.890;2023-03-11T10:56:34;39.80;37.12;54.36;;
60031;Laerm;45901;47.600;9.890;2023-03-11T10:59:04;40.30;37.52;47.42;;
60031;Laerm;45901;47.600;9.890;2023-03-11T11:01:32;40.70;37.88;56.24;;
60031;Laerm;45901;47.600;9.890;2023-03-11T11:04:01;41.16;37.32;54.65;;
60031;Laerm;45901;47.600;9.890;2023-03-11T11:06:30;41.08;38.21;46.82;;
60031;Laerm;45901;47.600;9.890;2023-03-11T11:09:15;40.88;37.70;49.66;;
60031;Laerm;45901;47.600;9.890;2023-03-11T11:12:01;40.85;37.88;47.34;;
60031;Laerm;45901;47.600;9.890;2023-03-11T11:14:48;41.04;37.88;47.61;;
60031;Laerm;45901;47.600;9.890;2023-03-11T11:17:21;40.67;37.12;47.59;;
60031;Laerm;45901;47.600;9.890;2023-03-11T11:19:50;40.02;36.45;56.24;;
60031;Laerm;45901;47.600;9.890;2023-03-11T11:22:20;39.38;36.20;44.43;;
60031;Laerm;45901;47.600;9.890;2023-03-11T11:24:50;39.27;35.94;44.54;;
60031;Laerm;45901;47.600;9.890;2023-03-11T11:27:21;39.15;36.20;45.80;;
60031;Laerm;45901;47.600;9.890;2023-03-11T11:30:13;39.29;36.20;44.27;;
60031;Laerm;45901;47.600;9.890;2023-03-11T11:32:41;39.58;36.69;42.93;;
60031;Laerm;45901;47.600;9.890;2023-03-11T11:35:12;39.42;36.45;42.22;;
60031;Laerm;45901;47.600;9.890;2023-03-11T11:37:42;39.66;36.20;43.49;;
60031;Laerm;45901;47.600;9.890;2023-03-11T11:40:27;39.36;36.45;41.38;;
60031;Laerm;45901;47.600;9.890;2023-03-11T11:43:02;39.50;36.20;43.28;;
60031;Laerm;45901;47.600;9.890;2023-03-11T11:45:36;39.52;35.66;44.27;;
60031;Laerm;45901;47.600;9.890;2023-03-11T11:48:13;39.26;35.66;42.71;;
60031;Laerm;45901;47.600;9.890;2023-03-11T11:50:47;39.11;36.20;42.03;;
60031;Laerm;45901;47.600;9.890;2023-03-11T11:53:27;39.12;35.66;42.71;;
60031;Laerm;45901;47.600;9.890;2023-03-11T11:55:58;38.98;36.34;41.30;;
60031;Laerm;45901;47.600;9.890;2023-03-11T11:58:27;39.17;35.66;43.81;;
60031;Laerm;45901;47.600;9.890;2023-03-11T12:01:15;39.38;35.36;44.73;;
60031;Laerm;45901;47.600;9.890;2023-03-11T12:04:24;39.09;35.86;41.53;;
60031;Laerm;45901;47.600;9.890;2023-03-11T12:07:08;39.37;36.20;44.83;;
60031;Laerm;45901;47.600;9.890;2023-03-11T12:09:49;39.15;36.20;42.03;;
60031;Laerm;45901;47.600;9.890;2023-03-11T12:12:26;39.09;36.20;42.03;;
60031;Laerm;45901;47.600;9.890;2023-03-11T12:15:07;39.07;35.94;44.73;;
60031;Laerm;45901;47.600;9.890;2023-03-11T12:17:41;39.37;36.20;43.34;;
60031;Laerm;45901;47.600;9.890;2023-03-11T12:20:15;39.05;36.20;42.09;;
60031;Laerm;45901;47.600;9.890;2023-03-11T12:23:17;39.08;35.94;42.09;;
60031;Laerm;45901;47.600;9.890;2023-03-11T12:26:02;39.16;35.94;42.47;;
60031;Laerm;45901;47.600;9.890;2023-03-11T12:28:40;39.51;36.56;42.65;;
60031;Laerm;45901;47.600;9.890;2023-03-11T12:31:11;39.51;36.45;45.48;;
60031;Laerm;45901;47.600;9.890;2023-03-11T12:33:41;39.72;35.94;43.68;;
60031;Laerm;45901;47.600;9.890;2023-03-11T12:36:23;39.71;35.66;43.14;;
60031;Laerm;45901;47.600;9.890;2023-03-11T12:38:51;39.33;35.94;41.38;;
60031;Laerm;45901;47.600;9.890;2023-03-11T12:41:32;39.57;36.69;41.53;;
60031;Laerm;45901;47.600;9.890;2023-03-11T12:44:26;39.72;36.45;43.54;;
60031;Laerm;45901;47.600;9.890;2023-03-11T12:47:21;39.62;36.69;45.30;;
60031;Laerm;45901;47.600;9.890;2023-03-11T12:49:50;39.58;36.69;42.47;;
60031;Laerm;45901;47.600;9.890;2023-03-11T12:52:23;39.59;36.91;41.53;;
60031;Laerm;45901;47.600;9.890;2023-03-11T12:55:29;39.62;37.12;43.34;;
60031;Laerm;45901;47.600;9.890;2023-03-11T12:58:35;39.61;36.91;41.82;;
60031;Laerm;45901;47.600;9.890;2023-03-11T13:01:42;39.80;37.12;45.01;;
60031;Laerm;45901;47.600;9.890;2023-03-11T13:04:41;39.75;36.91;43.29;;
60031;Laerm;45901;47.600;9.890;2023-03-11T13:07:40;39.77;37.12;44.62;;
60031;Laerm;45901;47.600;9.890;2023-03-11T13:10:34;39.78;36.91;43.58;;
60031;Laerm;45901;47.600;9.890;2023-03-11T13:13:30;39.74;36.45;44.07;;
60031;Laerm;45901;47.600;9.890;2023-03-11T13:16:35;39.95;36.56;44.95;;
60031;Laerm;45901;47.600;9.890;2023-03-11T13:19:54;39.76;37.32;41.68;;
60031;Laerm;45901;47.600;9.890;2023-03-11T13:25:41;39.92;36.69;42.82;;
60031;Laerm;45901;47.600;9.890;2023-03-11T13:28:33;39.82;37.52;43.29;;
60031;Laerm;45901;47.600;9.890;2023-03-11T13:31:32;39.74;36.91;44.58;;
60031;Laerm;45901;47.600;9.890;2023-03-11T13:34:14;39.91;37.12;44.80;;
60031;Laerm;45901;47.600;9.890;2023-03-11T13:37:09;39.92;37.32;42.53;;
60031;Laerm;45901;47.600;9.890;2023-03-11T13:40:03;40.24;37.52;51.41;;
60031;Laerm;45901;47.600;9.890;2023-03-11T13:42:45;39.88;37.32;43.34;;
60031;Laerm;45901;47.600;9.890;2023-03-11T13:45:27;39.83;36.91;43.90;;
60031;Laerm;45901;47.600;9.890;2023-03-11T13:47:58;39.78;37.52;41.68;;
60031;Laerm;45901;47.600;9.890;2023-03-11T13:50:31;39.80;36.69;41.96;;
60031;Laerm;45901;47.600;9.890;2023-03-11T13:53:08;40.19;37.12;45.48;;
60031;Laerm;45901;47.600;9.890;2023-03-11T13:55:40;39.57;36.20;41.46;;
60031;Laerm;45901;47.600;9.890;2023-03-11T13:58:17;39.61;36.69;42.09;;
60031;Laerm;45901;47.600;9.890;2023-03-11T14:00:51;39.84;36.45;44.51;;
60031;Laerm;45901;47.600;9.890;2023-03-11T14:03:20;39.55;36.69;41.68;;
60031;Laerm;45901;47.600;9.890;2023-03-11T14:05:57;39.69;36.91;42.76;;
60031;Laerm;45901;47.600;9.890;2023-03-11T14:08:29;39.67;36.45;42.88;;
60031;Laerm;45901;47.600;9.890;2023-03-11T14:10:58;39.55;36.91;42.29;;
60031;Laerm;45901;47.600;9.890;2023-03-11T14:13:27;39.67;36.69;44.65;;